createdAt,value
2019-03-16T16:37:33.398Z,5.94
2019-03-16T16:38:33.318Z,6.00
2019-03-16T16:39:33.271Z,5.98
2019-03-16T16:40:33.304Z,5.91
2019-03-16T16:41:33.248Z,6.03
2019-03-16T16:42:33.240Z,5.94
2019-03-16T16:43:33.229Z,6.06
2019-03-16T16:44:33.220Z,6.12
2019-03-16T16:45:33.244Z,6.05
2019-03-16T16:46:33.232Z,6.09
2019-03-16T16:47:33.188Z,6.05
2019-03-16T16:48:33.174Z,6.12
2019-03-16T16:49:33.167Z,6.08
2019-03-16T16:50:33.241Z,6.05
2019-03-16T16:51:33.341Z,6.15
2019-03-16T16:52:33.130Z,6.05
2019-03-16T16:53:33.127Z,6.16
2019-03-16T16:54:33.118Z,6.09
2019-03-16T16:55:33.114Z,6.08
2019-03-16T16:56:33.088Z,6.03
2019-03-16T16:57:33.180Z,6.02
2019-03-16T16:58:33.072Z,6.02
2019-03-16T16:59:33.064Z,6.13
2019-03-16T17:00:33.107Z,6.15
2019-03-16T17:01:41.104Z,6.16
2019-03-16T17:02:33.028Z,6.16
2019-03-16T17:03:33.081Z,6.19
2019-03-16T17:04:33.008Z,6.12
2019-03-16T17:05:33.016Z,6.19
2019-03-16T17:06:32.989Z,6.28
2019-03-16T17:07:33.030Z,6.21
2019-03-16T17:08:32.961Z,6.18
2019-03-16T17:09:32.957Z,6.19
2019-03-16T17:10:32.948Z,6.15
2019-03-16T17:11:33.006Z,6.24
2019-03-16T17:12:32.924Z,6.13
2019-03-16T17:13:32.908Z,6.28
2019-03-16T17:14:32.902Z,6.19
2019-03-16T17:15:32.884Z,6.31
2019-03-16T17:16:32.945Z,6.25
2019-03-16T17:17:35.421Z,6.19
2019-03-16T17:18:32.859Z,6.35
2019-03-16T17:19:32.851Z,6.24
2019-03-16T17:20:32.838Z,6.30
2019-03-16T17:21:32.929Z,6.32
2019-03-16T17:22:32.811Z,6.34
2019-03-16T17:23:32.803Z,6.28
2019-03-16T17:24:32.849Z,6.34
2019-03-16T17:25:32.790Z,6.31
2019-03-16T17:26:32.789Z,6.38
2019-03-16T17:27:32.756Z,6.35
2019-03-16T17:28:32.756Z,6.32
2019-03-16T17:29:32.733Z,6.31
2019-03-16T17:30:32.736Z,6.30
2019-03-16T17:31:41.686Z,6.31
2019-03-16T17:32:33.701Z,6.40
2019-03-16T17:33:32.691Z,6.34
2019-03-16T17:34:32.677Z,6.50
2019-03-16T17:35:32.711Z,6.46
2019-03-16T17:36:32.684Z,6.42
2019-03-16T17:37:32.651Z,6.43
2019-03-16T17:38:32.947Z,6.45
2019-03-16T17:39:32.625Z,6.52
2019-03-16T17:40:32.613Z,6.63
2019-03-16T17:41:32.751Z,6.56
2019-03-16T17:42:32.593Z,6.63
2019-03-16T17:43:32.577Z,6.64
2019-03-16T17:44:32.579Z,6.65
2019-03-16T17:45:35.767Z,6.67
2019-03-16T17:46:40.686Z,6.60
2019-03-16T17:47:32.548Z,6.65
2019-03-16T17:48:32.525Z,6.60
2019-03-16T17:49:32.516Z,6.63
2019-03-16T17:50:32.606Z,6.67
2019-03-16T17:51:32.500Z,6.63
2019-03-16T17:52:32.499Z,6.68
2019-03-16T17:53:32.470Z,6.68
2019-03-16T17:54:32.462Z,6.71
2019-03-16T17:55:32.462Z,6.67
2019-03-16T17:56:32.993Z,6.78
2019-03-16T17:57:32.441Z,6.61
2019-03-16T17:58:32.591Z,6.74
2019-03-16T17:59:32.406Z,6.68
2019-03-16T18:00:33.226Z,6.74
2019-03-16T18:01:32.386Z,6.78
2019-03-16T18:02:51.080Z,6.81
2019-03-16T18:03:33.360Z,6.91
2019-03-16T18:04:32.355Z,6.79
2019-03-16T18:05:32.345Z,6.88
2019-03-16T18:06:32.341Z,6.83
2019-03-16T18:07:33.213Z,6.82
2019-03-16T18:08:32.775Z,6.85
2019-03-16T18:09:32.302Z,6.88
2019-03-16T18:10:32.464Z,6.86
2019-03-16T18:11:42.168Z,6.89
2019-03-16T18:12:32.282Z,6.83
2019-03-16T18:13:32.258Z,6.89
2019-03-16T18:14:32.250Z,6.83
2019-03-16T18:15:32.238Z,6.97
2019-03-16T18:16:32.236Z,6.92
2019-03-16T18:17:40.798Z,6.91
2019-03-16T18:18:32.210Z,6.99
2019-03-16T18:19:32.238Z,6.91
2019-03-16T18:20:32.184Z,6.96
2019-03-16T18:21:32.200Z,7.01
2019-03-16T18:22:32.192Z,6.99
2019-03-16T18:23:32.189Z,6.97
2019-03-16T18:24:32.150Z,7.00
2019-03-16T18:25:32.147Z,7.03
2019-03-16T18:26:32.119Z,7.03
2019-03-16T18:27:32.123Z,7.06
2019-03-16T18:28:32.114Z,7.08
2019-03-16T18:29:32.088Z,7.03
2019-03-16T18:30:32.084Z,7.06
2019-03-16T18:31:32.075Z,7.10
2019-03-16T18:32:32.066Z,7.08
2019-03-16T18:33:32.084Z,7.11
2019-03-16T18:34:32.035Z,7.15
2019-03-16T18:35:32.077Z,7.11
2019-03-16T18:36:32.047Z,7.13
2019-03-16T18:37:32.003Z,7.13
2019-03-16T18:38:32.021Z,7.08
2019-03-16T18:39:31.987Z,7.11
2019-03-16T18:40:31.980Z,7.16
2019-03-16T18:41:31.974Z,7.18
2019-03-16T18:42:32.090Z,7.19
2019-03-16T18:43:31.967Z,7.24
2019-03-16T18:44:31.929Z,7.22
2019-03-16T18:45:31.926Z,7.19
2019-03-16T18:46:31.914Z,7.22
2019-03-16T18:47:31.925Z,7.25
2019-03-16T18:48:31.916Z,7.22
2019-03-16T18:49:31.870Z,7.29
2019-03-16T18:50:31.868Z,7.29
2019-03-16T18:51:31.857Z,7.31
2019-03-16T18:52:31.846Z,7.31
2019-03-16T18:53:31.855Z,7.39
2019-03-16T18:54:31.819Z,7.46
2019-03-16T18:55:31.819Z,7.40
2019-03-16T18:56:31.795Z,7.50
2019-03-16T18:57:31.792Z,7.50
2019-03-16T18:58:37.073Z,7.49
2019-03-16T18:59:32.777Z,7.43
2019-03-16T19:00:31.752Z,7.42
2019-03-16T19:01:31.744Z,7.47
2019-03-16T19:02:31.731Z,7.52
2019-03-16T19:03:31.733Z,7.49
2019-03-16T19:04:31.710Z,7.52
2019-03-16T19:05:31.711Z,7.55
2019-03-16T19:06:31.741Z,7.55
2019-03-16T19:07:31.683Z,7.55
2019-03-16T19:08:31.711Z,7.52
2019-03-16T19:09:31.664Z,7.61
2019-03-16T19:10:31.647Z,7.57
2019-03-16T19:11:31.643Z,7.64
2019-03-16T19:12:31.625Z,7.66
2019-03-16T19:13:31.631Z,7.66
2019-03-16T19:14:31.615Z,7.62
2019-03-16T19:15:31.671Z,7.68
2019-03-16T19:16:31.584Z,7.76
2019-03-16T19:17:31.587Z,7.68
2019-03-16T19:18:31.652Z,7.71
2019-03-16T19:19:31.555Z,7.76
2019-03-16T19:20:31.549Z,7.73
2019-03-16T19:21:31.543Z,7.74
2019-03-16T19:22:31.515Z,7.73
2019-03-16T19:23:31.542Z,7.66
2019-03-16T19:24:31.490Z,7.68
2019-03-16T19:25:31.481Z,7.68
2019-03-16T19:26:31.481Z,7.73
2019-03-16T19:27:31.498Z,7.80
2019-03-16T19:28:31.473Z,7.73
2019-03-16T19:29:31.447Z,7.68
2019-03-16T19:30:31.435Z,7.74
2019-03-16T19:31:31.420Z,7.71
2019-03-16T19:32:34.383Z,7.74
2019-03-16T19:33:32.446Z,7.76
2019-03-16T19:34:31.393Z,7.78
2019-03-16T19:35:39.958Z,7.78
2019-03-16T19:36:31.437Z,7.78
2019-03-16T19:37:31.547Z,7.91
2019-03-16T19:38:31.343Z,7.88
2019-03-16T19:39:31.340Z,7.78
2019-03-16T19:40:31.329Z,7.91
2019-03-16T19:41:32.138Z,7.86
2019-03-16T19:42:31.298Z,7.86
2019-03-16T19:43:31.312Z,7.91
2019-03-16T19:44:31.295Z,7.91
2019-03-16T19:45:31.319Z,7.95
2019-03-16T19:46:31.266Z,7.98
2019-03-16T19:47:31.250Z,7.95
2019-03-16T19:48:31.240Z,7.95
2019-03-16T19:49:31.274Z,8.01
2019-03-16T19:50:31.215Z,8.05
2019-03-16T19:51:31.207Z,8.06
2019-03-16T19:52:31.209Z,8.10
2019-03-16T19:53:31.199Z,8.10
2019-03-16T19:54:31.178Z,8.10
2019-03-16T19:55:31.154Z,8.04
2019-03-16T19:56:31.147Z,8.09
2019-03-16T19:57:31.141Z,8.14
2019-03-16T19:58:31.134Z,8.13
2019-03-16T19:59:31.160Z,8.17
2019-03-16T20:00:31.111Z,8.10
2019-03-16T20:01:31.094Z,8.17
2019-03-16T20:02:31.081Z,8.14
2019-03-16T20:03:31.066Z,8.10
2019-03-16T20:04:36.045Z,8.19
2019-03-16T20:05:32.056Z,8.20
2019-03-16T20:06:31.038Z,8.20
2019-03-16T20:07:31.023Z,8.24
2019-03-16T20:08:31.012Z,8.26
2019-03-16T20:09:31.025Z,8.29
2019-03-16T20:10:31.121Z,8.26
2019-03-16T20:11:31.017Z,8.31
2019-03-16T20:12:30.973Z,8.28
2019-03-16T20:13:30.962Z,8.35
2019-03-16T20:14:30.995Z,8.34
2019-03-16T20:15:30.942Z,8.29
2019-03-16T20:16:30.933Z,8.29
2019-03-16T20:17:30.941Z,8.37
2019-03-16T20:18:30.905Z,8.39
2019-03-16T20:19:30.942Z,8.31
2019-03-16T20:20:30.893Z,8.35
2019-03-16T20:21:30.896Z,8.39
2019-03-16T20:22:30.864Z,8.38
2019-03-16T20:23:30.873Z,8.41
2019-03-16T20:24:30.906Z,8.31
2019-03-16T20:25:30.831Z,8.39
2019-03-16T20:26:30.831Z,8.47
2019-03-16T20:27:30.821Z,8.49
2019-03-16T20:28:30.807Z,8.42
2019-03-16T20:29:30.807Z,8.39
2019-03-16T20:30:30.785Z,8.46
2019-03-16T20:31:30.772Z,8.53
2019-03-16T20:32:30.781Z,8.44
2019-03-16T20:33:31.089Z,8.49
2019-03-16T20:34:32.029Z,8.52
2019-03-16T20:35:31.105Z,8.50
2019-03-16T20:36:39.536Z,8.50
2019-03-16T20:37:30.716Z,8.55
2019-03-16T20:38:30.696Z,8.55
2019-03-16T20:39:30.678Z,8.55
2019-03-16T20:40:30.729Z,8.53
2019-03-16T20:41:35.989Z,8.52
2019-03-16T20:42:31.965Z,8.56
2019-03-16T20:43:30.639Z,8.53
2019-03-16T20:44:30.638Z,8.55
2019-03-16T20:45:31.230Z,8.56
2019-03-16T20:46:30.602Z,8.57
2019-03-16T20:47:31.295Z,8.56
2019-03-16T20:48:30.584Z,8.57
2019-03-16T20:49:30.678Z,8.60
2019-03-16T20:50:30.656Z,8.56
2019-03-16T20:51:30.592Z,8.60
2019-03-16T20:52:30.568Z,8.57
2019-03-16T20:53:30.529Z,8.62
2019-03-16T20:54:30.521Z,8.59
2019-03-16T20:55:30.524Z,8.60
2019-03-16T20:56:30.541Z,8.60
2019-03-16T20:57:30.492Z,8.60
2019-03-16T20:58:30.487Z,8.57
2019-03-16T20:59:30.468Z,8.63
2019-03-16T21:00:30.508Z,8.65
2019-03-16T21:01:30.576Z,8.70
2019-03-16T21:02:30.442Z,8.72
2019-03-16T21:03:30.423Z,8.75
2019-03-16T21:04:30.426Z,8.68
2019-03-16T21:05:30.423Z,8.71
2019-03-16T21:06:30.396Z,8.67
2019-03-16T21:07:30.378Z,8.72
2019-03-16T21:08:30.370Z,8.71
2019-03-16T21:09:30.364Z,8.71
2019-03-16T21:10:30.367Z,8.77
2019-03-16T21:11:30.338Z,8.74
2019-03-16T21:12:30.330Z,8.74
2019-03-16T21:13:30.333Z,8.78
2019-03-16T21:14:30.309Z,8.78
2019-03-16T21:15:30.306Z,8.75
2019-03-16T21:16:30.282Z,8.75
2019-03-16T21:17:30.303Z,8.75
2019-03-16T21:18:30.263Z,8.75
2019-03-16T21:19:30.251Z,8.72
2019-03-16T21:20:30.268Z,8.72
2019-03-16T21:21:30.294Z,8.78
2019-03-16T21:22:36.230Z,8.71
2019-03-16T21:23:31.211Z,8.83
2019-03-16T21:24:30.210Z,8.83
2019-03-16T21:25:30.204Z,8.86
2019-03-16T21:26:30.229Z,8.80
2019-03-16T21:27:30.164Z,8.85
2019-03-16T21:28:30.160Z,8.83
2019-03-16T21:29:30.182Z,8.77
2019-03-16T21:30:30.163Z,8.80
2019-03-16T21:31:30.131Z,8.77
2019-03-16T21:32:30.165Z,8.85
2019-03-16T21:33:30.137Z,8.83
2019-03-16T21:34:30.095Z,8.83
2019-03-16T21:35:30.078Z,8.78
2019-03-16T21:36:41.094Z,8.80
2019-03-16T21:37:31.609Z,8.92
2019-03-16T21:38:30.577Z,8.80
2019-03-16T21:39:30.141Z,8.86
2019-03-16T21:40:30.059Z,8.81
2019-03-16T21:41:30.029Z,8.80
2019-03-16T21:42:30.144Z,8.86
2019-03-16T21:43:29.994Z,8.86
2019-03-16T21:44:29.985Z,8.85
2019-03-16T21:45:29.969Z,8.85
2019-03-16T21:46:29.978Z,8.83
2019-03-16T21:47:30.769Z,8.85
2019-03-16T21:48:29.935Z,8.77
2019-03-16T21:49:29.954Z,8.78
2019-03-16T21:50:29.933Z,8.83
2019-03-16T21:51:29.927Z,8.88
2019-03-16T21:52:29.898Z,8.72
2019-03-16T21:53:29.885Z,8.81
2019-03-16T21:54:30.421Z,8.85
2019-03-16T21:55:29.867Z,8.86
2019-03-16T21:56:29.867Z,8.89
2019-03-16T21:57:30.075Z,8.90
2019-03-16T21:58:29.835Z,8.90
2019-03-16T21:59:29.842Z,8.88
2019-03-16T22:00:29.811Z,8.86
2019-03-16T22:01:29.825Z,8.93
2019-03-16T22:02:29.809Z,8.88
2019-03-16T22:03:41.700Z,8.92
2019-03-16T22:04:30.767Z,8.90
2019-03-16T22:05:29.809Z,8.88
2019-03-16T22:06:29.762Z,8.93
2019-03-16T22:07:29.735Z,8.89
2019-03-16T22:08:29.719Z,8.85
2019-03-16T22:09:29.715Z,8.92
2019-03-16T22:10:29.700Z,8.93
2019-03-16T22:11:29.735Z,8.89
2019-03-16T22:12:29.680Z,8.86
2019-03-16T22:13:29.669Z,8.88
2019-03-16T22:14:29.650Z,8.96
2019-03-16T22:15:29.660Z,8.89
2019-03-16T22:16:29.646Z,8.93
2019-03-16T22:17:29.681Z,8.88
2019-03-16T22:18:29.614Z,8.89
2019-03-16T22:19:29.612Z,8.95
2019-03-16T22:20:29.601Z,8.89
2019-03-16T22:21:29.652Z,8.88
2019-03-16T22:22:29.572Z,8.88
2019-03-16T22:23:29.561Z,8.90
2019-03-16T22:24:29.601Z,8.90
2019-03-16T22:25:29.567Z,8.86
2019-03-16T22:26:29.544Z,8.98
2019-03-16T22:27:29.511Z,8.93
2019-03-16T22:28:29.508Z,8.93
2019-03-16T22:29:29.500Z,8.89
2019-03-16T22:30:29.478Z,8.95
2019-03-16T22:31:29.529Z,8.92
2019-03-16T22:32:29.478Z,8.89
2019-03-16T22:33:29.448Z,9.03
2019-03-16T22:34:29.440Z,8.98
2019-03-16T22:35:29.424Z,8.98
2019-03-16T22:36:29.452Z,8.90
2019-03-16T22:37:29.436Z,8.90
2019-03-16T22:38:29.416Z,8.89
2019-03-16T22:39:29.429Z,8.93
2019-03-16T22:40:29.377Z,8.90
2019-03-16T22:41:29.368Z,8.93
2019-03-16T22:42:29.370Z,8.92
2019-03-16T22:43:29.374Z,8.92
2019-03-16T22:44:29.335Z,8.89
2019-03-16T22:45:29.325Z,8.89
2019-03-16T22:46:29.354Z,8.89
2019-03-16T22:47:29.351Z,8.88
2019-03-16T22:48:29.286Z,8.96
2019-03-16T22:49:29.279Z,8.89
2019-03-16T22:50:29.271Z,8.89
2019-03-16T22:51:29.257Z,8.85
2019-03-16T22:52:29.273Z,8.86
2019-03-16T22:53:29.240Z,8.88
2019-03-16T22:54:29.227Z,8.92
2019-03-16T22:55:29.210Z,8.95
2019-03-16T22:56:29.213Z,8.88
2019-03-16T22:57:29.205Z,8.92
2019-03-16T22:58:29.179Z,8.92
2019-03-16T22:59:29.226Z,8.92
2019-03-16T23:00:29.193Z,8.89
2019-03-16T23:01:29.150Z,8.85
2019-03-16T23:02:29.156Z,8.93
2019-03-16T23:03:29.173Z,8.92
2019-03-16T23:04:29.111Z,8.95
2019-03-16T23:05:29.103Z,8.88
2019-03-16T23:06:29.137Z,8.86
2019-03-16T23:07:29.110Z,8.86
2019-03-16T23:08:29.071Z,8.92
2019-03-16T23:09:29.063Z,8.90
2019-03-16T23:10:29.047Z,8.86
2019-03-16T23:11:29.040Z,8.88
2019-03-16T23:12:29.044Z,8.95
2019-03-16T23:13:29.024Z,8.90
2019-03-16T23:14:29.016Z,8.89
2019-03-16T23:15:28.996Z,8.86
2019-03-16T23:16:28.984Z,8.89
2019-03-16T23:17:28.999Z,8.80
2019-03-16T23:18:28.968Z,8.83
2019-03-16T23:19:28.969Z,8.86
2019-03-16T23:20:29.016Z,8.89
2019-03-16T23:21:28.927Z,8.88
2019-03-16T23:22:28.931Z,8.86
2019-03-16T23:23:28.904Z,8.83
2019-03-16T23:24:28.895Z,8.81
2019-03-16T23:25:28.889Z,8.85
2019-03-16T23:26:38.057Z,8.83
2019-03-16T23:27:29.881Z,8.86
2019-03-16T23:28:28.865Z,8.83
2019-03-16T23:29:28.853Z,8.80
2019-03-16T23:30:28.829Z,8.75
2019-03-16T23:31:28.831Z,8.83
2019-03-16T23:32:28.833Z,8.81
2019-03-16T23:33:28.805Z,8.85
2019-03-16T23:34:28.811Z,8.77
2019-03-16T23:35:28.782Z,8.83
2019-03-16T23:36:28.766Z,8.77
2019-03-16T23:37:28.778Z,8.75
2019-03-16T23:38:28.744Z,8.78
2019-03-16T23:39:28.742Z,8.74
2019-03-16T23:40:28.732Z,8.72
2019-03-16T23:41:28.724Z,8.81
2019-03-16T23:42:28.718Z,8.85
2019-03-16T23:43:28.688Z,8.74
2019-03-16T23:44:28.676Z,8.72
2019-03-16T23:45:28.688Z,8.85
2019-03-16T23:46:28.666Z,8.85
2019-03-16T23:47:28.668Z,8.85
2019-03-16T23:48:28.638Z,8.72
2019-03-16T23:49:28.638Z,8.77
2019-03-16T23:50:28.610Z,8.72
2019-03-16T23:51:28.614Z,8.75
2019-03-16T23:52:28.610Z,8.75
2019-03-16T23:53:28.590Z,8.71
2019-03-16T23:54:28.568Z,8.74
2019-03-16T23:55:28.572Z,8.74
2019-03-16T23:56:28.552Z,8.72
2019-03-16T23:57:28.574Z,8.75
2019-03-16T23:58:28.526Z,8.77
2019-03-16T23:59:28.518Z,8.80
